This is the latest recevied weather packets stored in our database for station/object Kirchdorf. If no packets are shown the sender has not sent any weather packets the latest 10 day(s).
| Time | Temp. | Humidity | Pressure | Rain* | Wind** | Luminosity | Snow |
|---|---|---|---|---|---|---|---|
| 1777806130 | 23.89° C | 37% | 1014.5 hPa | 0 mm | - | - | - |
| 1777804332 | 23.33° C | 45% | 1014.9 hPa | 0 mm | - | - | - |
| 1777802532 | 22.78° C | 44% | 1015.2 hPa | 0 mm | - | - | - |
| 1777800731 | 21.67° C | 47% | 1015.4 hPa | 0 mm | - | - | - |
| 1777798930 | 20.56° C | 50% | 1015.6 hPa | 0 mm | - | - | - |
| 1777797132 | 19.44° C | 52% | 1015.6 hPa | 0 mm | - | - | - |
| 1777795332 | 18.89° C | 60% | 1015.7 hPa | 0 mm | - | - | - |
| 1777793531 | 17.78° C | 63% | 1015.7 hPa | 0 mm | - | - | - |
| 1777791731 | 16.11° C | 67% | 1016 hPa | 0 mm | - | - | - |
| 1777789931 | 13.89° C | 79% | 1016 hPa | 0 mm | - | - | - |
| 1777788131 | 11.11° C | 85% | 1016 hPa | 0 mm | - | - | - |
| 1777786331 | 8.33° C | 91% | 1015.8 hPa | 0 mm | - | - | - |
| 1777784533 | 7.22° C | 93% | 1016 hPa | 0 mm | - | - | - |
| 1777782731 | 6.67° C | 94% | 1015.9 hPa | 0 mm | - | - | - |
| 1777780930 | 6.67° C | 93% | 1015.8 hPa | 0 mm | - | - | - |
| 1777779131 | 6.67° C | 93% | 1016 hPa | 0 mm | - | - | - |
| 1777777331 | 6.67° C | 93% | 1016.1 hPa | 0 mm | - | - | - |
| 1777775531 | 7.22° C | 93% | 1016.3 hPa | 0 mm | - | - | - |
| 1777773731 | 7.22° C | 92% | 1016.5 hPa | 0 mm | - | - | - |
| 1777771931 | 7.22° C | 90% | 1016.5 hPa | 0 mm | - | - | - |
| 1777770132 | 7.78° C | 92% | 1016.6 hPa | 0 mm | - | - | - |
| 1777768329 | 7.78° C | 92% | 1016.8 hPa | 0 mm | - | - | - |
| 1777766530 | 8.33° C | 91% | 1016.9 hPa | 0 mm | - | - | - |
| 1777764730 | 8.89° C | 89% | 1017.2 hPa | 0 mm | - | - | - |
| 1777762930 | 9.44° C | 87% | 1017.2 hPa | 0 mm | - | - | - |
* Rain since midnight (hover to see other rain measurements)
** Current wind speed in m/s (hover to see current wind gust speed)